sensor_id;sensor_type;location;lat;lon;timestamp;P1;durP1;ratioP1;P2;durP2;ratioP2
48847;SDS011;75039;51.970;5.660;2024-03-23T00:55:41;23.20;;;7.57;;
48847;SDS011;75039;51.970;5.660;2024-03-23T00:58:07;15.07;;;6.60;;
48847;SDS011;75039;51.970;5.660;2024-03-23T01:00:33;19.52;;;6.95;;
48847;SDS011;75039;51.970;5.660;2024-03-23T01:02:59;16.85;;;7.03;;
48847;SDS011;75039;51.970;5.660;2024-03-23T01:05:24;20.67;;;8.27;;
48847;SDS011;75039;51.970;5.660;2024-03-23T01:07:50;22.98;;;8.27;;
48847;SDS011;75039;51.970;5.660;2024-03-23T01:10:16;16.27;;;6.78;;
48847;SDS011;75039;51.970;5.660;2024-03-23T01:12:42;20.98;;;7.38;;
48847;SDS011;75039;51.970;5.660;2024-03-23T01:15:07;24.60;;;8.02;;
48847;SDS011;75039;51.970;5.660;2024-03-23T01:17:33;23.73;;;8.02;;
48847;SDS011;75039;51.970;5.660;2024-03-23T01:19:59;21.95;;;8.50;;
48847;SDS011;75039;51.970;5.660;2024-03-23T01:22:25;18.13;;;8.50;;
48847;SDS011;75039;51.970;5.660;2024-03-23T01:24:50;21.08;;;7.70;;
48847;SDS011;75039;51.970;5.660;2024-03-23T01:27:16;20.25;;;9.00;;
48847;SDS011;75039;51.970;5.660;2024-03-23T01:29:42;21.40;;;8.45;;
48847;SDS011;75039;51.970;5.660;2024-03-23T01:32:07;26.73;;;10.20;;
48847;SDS011;75039;51.970;5.660;2024-03-23T01:34:33;20.55;;;8.23;;
48847;SDS011;75039;51.970;5.660;2024-03-23T01:36:59;28.25;;;9.75;;
48847;SDS011;75039;51.970;5.660;2024-03-23T01:39:25;22.13;;;9.63;;
48847;SDS011;75039;51.970;5.660;2024-03-23T01:41:50;26.30;;;10.18;;
48847;SDS011;75039;51.970;5.660;2024-03-23T01:44:16;26.75;;;8.90;;
48847;SDS011;75039;51.970;5.660;2024-03-23T01:46:42;28.20;;;9.32;;
48847;SDS011;75039;51.970;5.660;2024-03-23T01:49:09;19.92;;;8.90;;
48847;SDS011;75039;51.970;5.660;2024-03-23T01:51:35;24.55;;;9.68;;
48847;SDS011;75039;51.970;5.660;2024-03-23T01:54:02;23.73;;;9.82;;
48847;SDS011;75039;51.970;5.660;2024-03-23T01:56:29;25.58;;;9.10;;
48847;SDS011;75039;51.970;5.660;2024-03-23T01:58:58;22.02;;;9.82;;
48847;SDS011;75039;51.970;5.660;2024-03-23T02:01:24;21.77;;;10.13;;
48847;SDS011;75039;51.970;5.660;2024-03-23T02:03:49;26.45;;;9.77;;
48847;SDS011;75039;51.970;5.660;2024-03-23T02:06:15;27.65;;;9.93;;
48847;SDS011;75039;51.970;5.660;2024-03-23T02:08:41;25.75;;;10.02;;
48847;SDS011;75039;51.970;5.660;2024-03-23T02:11:07;24.83;;;10.32;;
48847;SDS011;75039;51.970;5.660;2024-03-23T02:13:32;24.77;;;10.02;;
48847;SDS011;75039;51.970;5.660;2024-03-23T02:15:58;27.10;;;10.23;;
48847;SDS011;75039;51.970;5.660;2024-03-23T02:18:24;29.40;;;10.20;;
48847;SDS011;75039;51.970;5.660;2024-03-23T02:20:49;28.48;;;10.70;;
48847;SDS011;75039;51.970;5.660;2024-03-23T02:23:15;28.25;;;11.52;;
48847;SDS011;75039;51.970;5.660;2024-03-23T02:25:43;25.55;;;10.45;;
48847;SDS011;75039;51.970;5.660;2024-03-23T02:28:09;23.92;;;9.70;;
48847;SDS011;75039;51.970;5.660;2024-03-23T02:30:36;23.83;;;10.02;;
48847;SDS011;75039;51.970;5.660;2024-03-23T02:33:02;20.98;;;10.43;;
48847;SDS011;75039;51.970;5.660;2024-03-23T02:35:28;27.85;;;10.05;;
48847;SDS011;75039;51.970;5.660;2024-03-23T02:37:54;23.60;;;9.88;;
48847;SDS011;75039;51.970;5.660;2024-03-23T02:40:22;28.58;;;10.57;;
48847;SDS011;75039;51.970;5.660;2024-03-23T02:42:48;29.98;;;10.10;;
48847;SDS011;75039;51.970;5.660;2024-03-23T02:45:14;23.52;;;8.90;;
48847;SDS011;75039;51.970;5.660;2024-03-23T02:47:40;22.27;;;9.55;;
48847;SDS011;75039;51.970;5.660;2024-03-23T02:50:06;23.25;;;10.10;;
48847;SDS011;75039;51.970;5.660;2024-03-23T02:52:32;22.65;;;10.65;;
48847;SDS011;75039;51.970;5.660;2024-03-23T02:54:58;20.80;;;9.27;;
48847;SDS011;75039;51.970;5.660;2024-03-23T02:57:24;26.70;;;10.70;;
48847;SDS011;75039;51.970;5.660;2024-03-23T02:59:51;24.92;;;9.40;;
48847;SDS011;75039;51.970;5.660;2024-03-23T03:02:16;21.52;;;9.23;;
48847;SDS011;75039;51.970;5.660;2024-03-23T03:04:42;24.30;;;10.32;;
48847;SDS011;75039;51.970;5.660;2024-03-23T03:07:08;30.83;;;9.60;;
48847;SDS011;75039;51.970;5.660;2024-03-23T03:09:33;27.75;;;9.52;;
48847;SDS011;75039;51.970;5.660;2024-03-23T03:12:01;21.98;;;8.43;;
48847;SDS011;75039;51.970;5.660;2024-03-23T03:14:27;17.25;;;8.63;;
48847;SDS011;75039;51.970;5.660;2024-03-23T03:16:53;18.98;;;8.90;;
48847;SDS011;75039;51.970;5.660;2024-03-23T03:19:19;22.05;;;8.80;;
48847;SDS011;75039;51.970;5.660;2024-03-23T03:21:45;28.25;;;9.32;;
48847;SDS011;75039;51.970;5.660;2024-03-23T03:24:13;21.02;;;8.93;;
48847;SDS011;75039;51.970;5.660;2024-03-23T03:26:39;24.02;;;7.82;;
48847;SDS011;75039;51.970;5.660;2024-03-23T03:29:04;21.38;;;9.45;;
48847;SDS011;75039;51.970;5.660;2024-03-23T03:31:30;20.90;;;7.95;;
48847;SDS011;75039;51.970;5.660;2024-03-23T03:33:56;22.08;;;8.40;;
48847;SDS011;75039;51.970;5.660;2024-03-23T03:36:22;21.13;;;8.35;;
48847;SDS011;75039;51.970;5.660;2024-03-23T03:38:47;18.60;;;7.32;;
48847;SDS011;75039;51.970;5.660;2024-03-23T03:41:13;19.80;;;7.78;;
48847;SDS011;75039;51.970;5.660;2024-03-23T03:43:39;20.30;;;6.53;;
48847;SDS011;75039;51.970;5.660;2024-03-23T03:46:04;20.05;;;7.05;;
48847;SDS011;75039;51.970;5.660;2024-03-23T03:48:30;22.65;;;6.07;;
48847;SDS011;75039;51.970;5.660;2024-03-23T03:50:56;15.55;;;6.40;;
48847;SDS011;75039;51.970;5.660;2024-03-23T03:53:21;19.73;;;5.85;;
48847;SDS011;75039;51.970;5.660;2024-03-23T03:55:47;13.85;;;5.90;;
48847;SDS011;75039;51.970;5.660;2024-03-23T03:58:13;18.63;;;6.03;;
48847;SDS011;75039;51.970;5.660;2024-03-23T04:00:38;21.38;;;6.03;;
48847;SDS011;75039;51.970;5.660;2024-03-23T04:03:04;16.42;;;5.07;;
48847;SDS011;75039;51.970;5.660;2024-03-23T04:05:30;15.13;;;5.45;;
48847;SDS011;75039;51.970;5.660;2024-03-23T04:07:56;11.35;;;5.07;;
48847;SDS011;75039;51.970;5.660;2024-03-23T04:10:21;14.23;;;5.30;;
48847;SDS011;75039;51.970;5.660;2024-03-23T04:12:50;12.80;;;5.53;;
48847;SDS011;75039;51.970;5.660;2024-03-23T04:15:16;11.35;;;3.97;;
48847;SDS011;75039;51.970;5.660;2024-03-23T04:17:41;10.48;;;4.40;;
48847;SDS011;75039;51.970;5.660;2024-03-23T04:20:08;14.02;;;4.57;;
48847;SDS011;75039;51.970;5.660;2024-03-23T04:22:36;14.15;;;4.05;;
48847;SDS011;75039;51.970;5.660;2024-03-23T04:25:03;10.77;;;3.92;;
48847;SDS011;75039;51.970;5.660;2024-03-23T04:27:35;18.20;;;3.72;;
48847;SDS011;75039;51.970;5.660;2024-03-23T04:30:01;14.23;;;4.07;;
48847;SDS011;75039;51.970;5.660;2024-03-23T04:32:27;13.00;;;4.13;;
48847;SDS011;75039;51.970;5.660;2024-03-23T04:34:53;10.88;;;3.35;;
48847;SDS011;75039;51.970;5.660;2024-03-23T04:37:20;13.10;;;3.75;;
48847;SDS011;75039;51.970;5.660;2024-03-23T04:39:46;14.05;;;3.70;;
48847;SDS011;75039;51.970;5.660;2024-03-23T04:42:14;9.80;;;3.08;;
48847;SDS011;75039;51.970;5.660;2024-03-23T04:44:40;11.80;;;3.28;;
48847;SDS011;75039;51.970;5.660;2024-03-23T04:47:06;10.90;;;3.20;;
48847;SDS011;75039;51.970;5.660;2024-03-23T04:49:32;11.88;;;3.78;;
48847;SDS011;75039;51.970;5.660;2024-03-23T04:51:58;11.05;;;3.25;;
48847;SDS011;75039;51.970;5.660;2024-03-23T04:54:24;10.80;;;3.20;;
48847;SDS011;75039;51.970;5.660;2024-03-23T04:56:50;16.00;;;3.92;;
48847;SDS011;75039;51.970;5.660;2024-03-23T04:59:16;10.88;;;3.45;;
48847;SDS011;75039;51.970;5.660;2024-03-23T05:01:42;11.75;;;3.88;;
48847;SDS011;75039;51.970;5.660;2024-03-23T05:04:08;10.50;;;3.55;;
48847;SDS011;75039;51.970;5.660;2024-03-23T05:06:35;10.68;;;3.75;;
48847;SDS011;75039;51.970;5.660;2024-03-23T05:09:01;13.43;;;3.70;;
48847;SDS011;75039;51.970;5.660;2024-03-23T05:11:40;15.85;;;3.42;;
48847;SDS011;75039;51.970;5.660;2024-03-23T05:14:07;9.55;;;3.08;;
48847;SDS011;75039;51.970;5.660;2024-03-23T05:16:33;15.80;;;4.00;;
48847;SDS011;75039;51.970;5.660;2024-03-23T05:18:59;11.05;;;3.33;;
48847;SDS011;75039;51.970;5.660;2024-03-23T05:21:25;11.93;;;3.00;;
48847;SDS011;75039;51.970;5.660;2024-03-23T05:23:50;12.73;;;3.30;;
48847;SDS011;75039;51.970;5.660;2024-03-23T05:26:17;11.00;;;3.38;;
48847;SDS011;75039;51.970;5.660;2024-03-23T05:28:42;15.18;;;3.50;;
48847;SDS011;75039;51.970;5.660;2024-03-23T05:31:09;11.90;;;3.25;;
48847;SDS011;75039;51.970;5.660;2024-03-23T05:33:38;14.20;;;3.55;;
48847;SDS011;75039;51.970;5.660;2024-03-23T05:36:03;17.75;;;3.60;;
48847;SDS011;75039;51.970;5.660;2024-03-23T05:38:30;11.45;;;3.25;;
48847;SDS011;75039;51.970;5.660;2024-03-23T05:40:59;10.55;;;2.63;;
48847;SDS011;75039;51.970;5.660;2024-03-23T05:43:25;14.18;;;3.25;;
48847;SDS011;75039;51.970;5.660;2024-03-23T05:45:56;10.00;;;2.78;;
48847;SDS011;75039;51.970;5.660;2024-03-23T05:48:22;13.93;;;3.70;;
48847;SDS011;75039;51.970;5.660;2024-03-23T05:50:49;13.50;;;2.90;;
48847;SDS011;75039;51.970;5.660;2024-03-23T05:53:16;10.23;;;2.80;;
48847;SDS011;75039;51.970;5.660;2024-03-23T05:55:42;8.73;;;3.25;;
48847;SDS011;75039;51.970;5.660;2024-03-23T05:58:08;6.90;;;2.65;;
48847;SDS011;75039;51.970;5.660;2024-03-23T06:00:34;5.57;;;2.15;;
48847;SDS011;75039;51.970;5.660;2024-03-23T06:03:00;10.85;;;2.47;;
48847;SDS011;75039;51.970;5.660;2024-03-23T06:05:26;16.25;;;2.60;;
48847;SDS011;75039;51.970;5.660;2024-03-23T06:07:51;9.60;;;2.75;;
48847;SDS011;75039;51.970;5.660;2024-03-23T06:10:17;8.80;;;3.10;;
48847;SDS011;75039;51.970;5.660;2024-03-23T06:12:43;11.15;;;2.92;;
48847;SDS011;75039;51.970;5.660;2024-03-23T06:15:11;6.95;;;2.28;;
48847;SDS011;75039;51.970;5.660;2024-03-23T06:17:37;9.02;;;2.20;;
48847;SDS011;75039;51.970;5.660;2024-03-23T06:20:03;5.72;;;2.13;;
48847;SDS011;75039;51.970;5.660;2024-03-23T06:22:31;11.63;;;2.15;;
48847;SDS011;75039;51.970;5.660;2024-03-23T06:24:57;7.78;;;2.28;;
48847;SDS011;75039;51.970;5.660;2024-03-23T06:27:23;11.02;;;2.10;;
48847;SDS011;75039;51.970;5.660;2024-03-23T06:29:49;9.43;;;2.10;;
48847;SDS011;75039;51.970;5.660;2024-03-23T06:32:14;9.90;;;2.15;;
48847;SDS011;75039;51.970;5.660;2024-03-23T06:34:43;8.85;;;2.13;;
48847;SDS011;75039;51.970;5.660;2024-03-23T06:37:10;13.07;;;2.63;;
48847;SDS011;75039;51.970;5.660;2024-03-23T06:39:36;8.07;;;1.98;;
48847;SDS011;75039;51.970;5.660;2024-03-23T06:42:02;9.15;;;1.95;;
48847;SDS011;75039;51.970;5.660;2024-03-23T06:44:28;9.10;;;2.80;;
48847;SDS011;75039;51.970;5.660;2024-03-23T06:46:55;8.10;;;2.10;;
48847;SDS011;75039;51.970;5.660;2024-03-23T06:49:22;11.05;;;2.63;;
48847;SDS011;75039;51.970;5.660;2024-03-23T06:51:48;11.15;;;2.55;;
48847;SDS011;75039;51.970;5.660;2024-03-23T06:54:14;12.02;;;3.20;;
48847;SDS011;75039;51.970;5.660;2024-03-23T06:56:40;9.90;;;2.40;;
48847;SDS011;75039;51.970;5.660;2024-03-23T06:59:06;12.63;;;3.13;;
48847;SDS011;75039;51.970;5.660;2024-03-23T07:01:32;5.05;;;2.28;;
48847;SDS011;75039;51.970;5.660;2024-03-23T07:03:57;12.32;;;3.13;;
48847;SDS011;75039;51.970;5.660;2024-03-23T07:06:23;9.52;;;2.08;;
48847;SDS011;75039;51.970;5.660;2024-03-23T07:08:48;9.68;;;2.65;;
48847;SDS011;75039;51.970;5.660;2024-03-23T07:11:21;9.82;;;2.90;;
48847;SDS011;75039;51.970;5.660;2024-03-23T07:13:49;8.50;;;2.42;;
48847;SDS011;75039;51.970;5.660;2024-03-23T07:16:16;7.25;;;2.53;;
48847;SDS011;75039;51.970;5.660;2024-03-23T07:18:42;7.25;;;2.58;;
48847;SDS011;75039;51.970;5.660;2024-03-23T07:21:08;11.57;;;3.08;;
48847;SDS011;75039;51.970;5.660;2024-03-23T07:23:33;8.02;;;2.88;;
48847;SDS011;75039;51.970;5.660;2024-03-23T07:26:00;7.82;;;2.65;;
48847;SDS011;75039;51.970;5.660;2024-03-23T07:28:33;10.93;;;2.90;;
48847;SDS011;75039;51.970;5.660;2024-03-23T07:31:03;10.77;;;3.17;;
48847;SDS011;75039;51.970;5.660;2024-03-23T07:33:30;9.32;;;3.10;;
48847;SDS011;75039;51.970;5.660;2024-03-23T07:35:56;9.68;;;2.60;;
48847;SDS011;75039;51.970;5.660;2024-03-23T07:38:23;12.55;;;2.90;;
48847;SDS011;75039;51.970;5.660;2024-03-23T07:40:49;7.18;;;3.10;;
48847;SDS011;75039;51.970;5.660;2024-03-23T07:43:24;14.40;;;2.58;;
48847;SDS011;75039;51.970;5.660;2024-03-23T07:45:53;17.35;;;2.97;;
48847;SDS011;75039;51.970;5.660;2024-03-23T07:48:20;7.40;;;2.42;;
48847;SDS011;75039;51.970;5.660;2024-03-23T07:50:56;7.57;;;2.53;;
48847;SDS011;75039;51.970;5.660;2024-03-23T07:53:45;11.38;;;2.85;;
48847;SDS011;75039;51.970;5.660;2024-03-23T07:56:14;8.80;;;2.58;;
48847;SDS011;75039;51.970;5.660;2024-03-23T07:58:41;5.28;;;2.53;;
48847;SDS011;75039;51.970;5.660;2024-03-23T08:01:16;9.68;;;2.58;;
48847;SDS011;75039;51.970;5.660;2024-03-23T08:08:39;14.38;;;3.15;;
48847;SDS011;75039;51.970;5.660;2024-03-23T08:11:06;9.65;;;2.70;;
48847;SDS011;75039;51.970;5.660;2024-03-23T08:13:32;6.95;;;2.20;;
48847;SDS011;75039;51.970;5.660;2024-03-23T08:16:02;9.52;;;2.55;;
48847;SDS011;75039;51.970;5.660;2024-03-23T08:18:29;5.97;;;2.00;;
48847;SDS011;75039;51.970;5.660;2024-03-23T08:20:56;6.80;;;2.45;;
48847;SDS011;75039;51.970;5.660;2024-03-23T08:23:25;9.70;;;2.88;;
48847;SDS011;75039;51.970;5.660;2024-03-23T08:25:52;7.75;;;2.05;;
48847;SDS011;75039;51.970;5.660;2024-03-23T08:28:22;12.52;;;3.60;;
48847;SDS011;75039;51.970;5.660;2024-03-23T08:30:48;11.00;;;2.50;;
48847;SDS011;75039;51.970;5.660;2024-03-23T08:33:14;7.43;;;2.20;;
48847;SDS011;75039;51.970;5.660;2024-03-23T08:35:41;10.30;;;1.77;;
48847;SDS011;75039;51.970;5.660;2024-03-23T08:38:07;12.80;;;2.22;;
48847;SDS011;75039;51.970;5.660;2024-03-23T08:40:33;10.98;;;2.22;;
48847;SDS011;75039;51.970;5.660;2024-03-23T08:42:58;12.85;;;1.90;;
48847;SDS011;75039;51.970;5.660;2024-03-23T08:45:24;7.18;;;2.03;;
48847;SDS011;75039;51.970;5.660;2024-03-23T08:47:51;3.83;;;1.88;;
48847;SDS011;75039;51.970;5.660;2024-03-23T08:50:17;7.38;;;2.17;;
48847;SDS011;75039;51.970;5.660;2024-03-23T08:52:43;9.23;;;2.05;;
48847;SDS011;75039;51.970;5.660;2024-03-23T08:55:09;12.05;;;2.50;;
48847;SDS011;75039;51.970;5.660;2024-03-23T08:57:35;7.32;;;2.17;;
48847;SDS011;75039;51.970;5.660;2024-03-23T09:00:02;6.10;;;2.03;;
48847;SDS011;75039;51.970;5.660;2024-03-23T09:02:28;6.70;;;3.15;;
48847;SDS011;75039;51.970;5.660;2024-03-23T09:04:53;3.08;;;1.40;;
48847;SDS011;75039;51.970;5.660;2024-03-23T09:07:19;8.63;;;1.95;;
48847;SDS011;75039;51.970;5.660;2024-03-23T09:09:45;7.47;;;2.10;;
48847;SDS011;75039;51.970;5.660;2024-03-23T09:12:10;9.70;;;1.95;;
48847;SDS011;75039;51.970;5.660;2024-03-23T09:14:36;6.15;;;2.40;;
48847;SDS011;75039;51.970;5.660;2024-03-23T09:17:02;7.82;;;2.30;;
48847;SDS011;75039;51.970;5.660;2024-03-23T09:19:28;7.25;;;1.98;;
48847;SDS011;75039;51.970;5.660;2024-03-23T09:21:55;4.07;;;1.40;;
48847;SDS011;75039;51.970;5.660;2024-03-23T09:24:21;6.60;;;2.22;;
48847;SDS011;75039;51.970;5.660;2024-03-23T09:26:51;8.75;;;1.80;;
48847;SDS011;75039;51.970;5.660;2024-03-23T09:29:17;5.32;;;2.55;;
48847;SDS011;75039;51.970;5.660;2024-03-23T09:31:43;10.20;;;1.70;;
48847;SDS011;75039;51.970;5.660;2024-03-23T09:34:08;8.63;;;1.98;;
48847;SDS011;75039;51.970;5.660;2024-03-23T09:36:34;6.88;;;1.60;;
48847;SDS011;75039;51.970;5.660;2024-03-23T09:39:00;7.78;;;1.83;;
48847;SDS011;75039;51.970;5.660;2024-03-23T09:41:25;6.57;;;1.85;;
48847;SDS011;75039;51.970;5.660;2024-03-23T09:43:54;5.55;;;1.80;;
48847;SDS011;75039;51.970;5.660;2024-03-23T09:46:20;8.35;;;2.35;;
48847;SDS011;75039;51.970;5.660;2024-03-23T09:48:46;5.60;;;1.70;;
48847;SDS011;75039;51.970;5.660;2024-03-23T09:51:12;7.25;;;1.70;;
48847;SDS011;75039;51.970;5.660;2024-03-23T09:53:37;6.60;;;1.80;;
48847;SDS011;75039;51.970;5.660;2024-03-23T09:56:04;7.68;;;1.50;;
48847;SDS011;75039;51.970;5.660;2024-03-23T09:58:30;4.60;;;1.27;;
48847;SDS011;75039;51.970;5.660;2024-03-23T10:00:57;5.28;;;1.40;;
48847;SDS011;75039;51.970;5.660;2024-03-23T10:03:23;4.72;;;1.60;;
48847;SDS011;75039;51.970;5.660;2024-03-23T10:05:59;7.93;;;1.92;;
48847;SDS011;75039;51.970;5.660;2024-03-23T10:08:26;6.35;;;1.40;;
48847;SDS011;75039;51.970;5.660;2024-03-23T10:10:56;7.68;;;1.63;;
48847;SDS011;75039;51.970;5.660;2024-03-23T10:13:25;16.60;;;2.30;;
48847;SDS011;75039;51.970;5.660;2024-03-23T10:15:55;7.07;;;1.30;;
48847;SDS011;75039;51.970;5.660;2024-03-23T10:18:22;6.95;;;1.75;;
48847;SDS011;75039;51.970;5.660;2024-03-23T10:23:30;5.97;;;2.08;;
48847;SDS011;75039;51.970;5.660;2024-03-23T10:26:42;6.53;;;1.80;;
48847;SDS011;75039;51.970;5.660;2024-03-23T10:31:17;5.00;;;1.45;;
48847;SDS011;75039;51.970;5.660;2024-03-23T10:33:44;9.00;;;2.10;;
48847;SDS011;75039;51.970;5.660;2024-03-23T10:36:13;6.38;;;1.67;;
48847;SDS011;75039;51.970;5.660;2024-03-23T10:38:40;7.18;;;1.90;;
48847;SDS011;75039;51.970;5.660;2024-03-23T10:41:10;11.20;;;2.58;;
48847;SDS011;75039;51.970;5.660;2024-03-23T10:43:36;6.05;;;2.03;;
48847;SDS011;75039;51.970;5.660;2024-03-23T10:46:03;4.32;;;1.63;;
48847;SDS011;75039;51.970;5.660;2024-03-23T10:48:29;5.15;;;1.50;;
48847;SDS011;75039;51.970;5.660;2024-03-23T10:50:56;10.63;;;1.83;;
48847;SDS011;75039;51.970;5.660;2024-03-23T10:53:24;7.57;;;1.73;;
48847;SDS011;75039;51.970;5.660;2024-03-23T10:55:51;5.15;;;2.22;;
48847;SDS011;75039;51.970;5.660;2024-03-23T10:58:23;6.20;;;1.60;;
48847;SDS011;75039;51.970;5.660;2024-03-23T11:00:56;4.45;;;1.45;;
48847;SDS011;75039;51.970;5.660;2024-03-23T11:03:30;9.27;;;1.80;;
48847;SDS011;75039;51.970;5.660;2024-03-23T11:06:00;6.03;;;2.40;;
48847;SDS011;75039;51.970;5.660;2024-03-23T11:08:30;10.43;;;2.20;;
48847;SDS011;75039;51.970;5.660;2024-03-23T11:11:19;9.75;;;2.38;;
48847;SDS011;75039;51.970;5.660;2024-03-23T11:13:49;6.43;;;1.67;;
48847;SDS011;75039;51.970;5.660;2024-03-23T11:16:16;7.15;;;1.98;;
48847;SDS011;75039;51.970;5.660;2024-03-23T11:19:33;9.70;;;2.42;;
48847;SDS011;75039;51.970;5.660;2024-03-23T11:21:59;5.97;;;1.80;;
48847;SDS011;75039;51.970;5.660;2024-03-23T11:24:24;6.60;;;1.70;;
48847;SDS011;75039;51.970;5.660;2024-03-23T11:26:50;6.30;;;1.55;;
48847;SDS011;75039;51.970;5.660;2024-03-23T11:29:16;8.05;;;1.58;;
48847;SDS011;75039;51.970;5.660;2024-03-23T11:31:47;5.95;;;1.88;;
48847;SDS011;75039;51.970;5.660;2024-03-23T11:34:17;6.75;;;1.55;;
48847;SDS011;75039;51.970;5.660;2024-03-23T11:36:44;5.38;;;1.52;;
48847;SDS011;75039;51.970;5.660;2024-03-23T11:39:17;4.03;;;1.48;;
48847;SDS011;75039;51.970;5.660;2024-03-23T11:41:47;7.28;;;2.33;;
48847;SDS011;75039;51.970;5.660;2024-03-23T11:44:21;10.50;;;1.65;;
48847;SDS011;75039;51.970;5.660;2024-03-23T11:46:47;7.32;;;1.83;;
48847;SDS011;75039;51.970;5.660;2024-03-23T11:51:47;5.18;;;1.67;;
48847;SDS011;75039;51.970;5.660;2024-03-23T11:54:13;5.75;;;1.67;;
48847;SDS011;75039;51.970;5.660;2024-03-23T11:56:39;5.50;;;1.48;;
48847;SDS011;75039;51.970;5.660;2024-03-23T11:59:06;6.00;;;1.23;;
48847;SDS011;75039;51.970;5.660;2024-03-23T12:01:32;5.10;;;1.40;;
48847;SDS011;75039;51.970;5.660;2024-03-23T12:03:57;5.45;;;1.58;;
48847;SDS011;75039;51.970;5.660;2024-03-23T12:06:23;8.10;;;1.17;;
48847;SDS011;75039;51.970;5.660;2024-03-23T12:08:49;8.75;;;2.22;;
48847;SDS011;75039;51.970;5.660;2024-03-23T12:11:15;8.20;;;2.20;;
48847;SDS011;75039;51.970;5.660;2024-03-23T12:13:42;5.43;;;1.30;;
48847;SDS011;75039;51.970;5.660;2024-03-23T12:18:46;5.75;;;2.05;;
48847;SDS011;75039;51.970;5.660;2024-03-23T12:21:13;8.93;;;1.60;;
48847;SDS011;75039;51.970;5.660;2024-03-23T12:23:39;4.47;;;1.50;;
48847;SDS011;75039;51.970;5.660;2024-03-23T12:26:05;8.55;;;1.80;;
48847;SDS011;75039;51.970;5.660;2024-03-23T12:28:31;7.38;;;2.00;;
48847;SDS011;75039;51.970;5.660;2024-03-23T12:30:57;6.65;;;2.65;;
48847;SDS011;75039;51.970;5.660;2024-03-23T12:33:23;10.55;;;1.33;;
48847;SDS011;75039;51.970;5.660;2024-03-23T12:35:49;6.05;;;2.15;;
48847;SDS011;75039;51.970;5.660;2024-03-23T12:38:16;9.32;;;1.70;;
48847;SDS011;75039;51.970;5.660;2024-03-23T12:40:46;8.63;;;2.15;;
48847;SDS011;75039;51.970;5.660;2024-03-23T12:43:15;10.15;;;1.98;;
48847;SDS011;75039;51.970;5.660;2024-03-23T12:45:45;5.22;;;1.45;;
48847;SDS011;75039;51.970;5.660;2024-03-23T12:48:12;5.88;;;1.40;;
48847;SDS011;75039;51.970;5.660;2024-03-23T12:50:37;5.38;;;1.33;;
48847;SDS011;75039;51.970;5.660;2024-03-23T12:53:03;4.63;;;2.15;;
48847;SDS011;75039;51.970;5.660;2024-03-23T12:55:29;8.25;;;1.75;;
48847;SDS011;75039;51.970;5.660;2024-03-23T12:57:55;3.78;;;1.67;;
48847;SDS011;75039;51.970;5.660;2024-03-23T13:00:21;10.45;;;1.60;;
48847;SDS011;75039;51.970;5.660;2024-03-23T13:02:47;4.53;;;2.10;;
48847;SDS011;75039;51.970;5.660;2024-03-23T13:05:13;6.00;;;1.90;;
48847;SDS011;75039;51.970;5.660;2024-03-23T13:07:39;6.65;;;1.55;;
48847;SDS011;75039;51.970;5.660;2024-03-23T13:10:05;6.85;;;1.80;;
48847;SDS011;75039;51.970;5.660;2024-03-23T13:12:31;9.15;;;2.30;;
48847;SDS011;75039;51.970;5.660;2024-03-23T13:14:58;7.88;;;1.77;;
48847;SDS011;75039;51.970;5.660;2024-03-23T13:17:25;8.10;;;1.65;;
48847;SDS011;75039;51.970;5.660;2024-03-23T13:19:52;5.32;;;1.70;;
48847;SDS011;75039;51.970;5.660;2024-03-23T13:22:18;7.93;;;2.88;;
48847;SDS011;75039;51.970;5.660;2024-03-23T13:24:44;4.30;;;1.20;;
48847;SDS011;75039;51.970;5.660;2024-03-23T13:27:10;5.25;;;1.75;;
48847;SDS011;75039;51.970;5.660;2024-03-23T13:29:36;4.82;;;1.38;;
48847;SDS011;75039;51.970;5.660;2024-03-23T13:32:03;11.18;;;1.73;;
48847;SDS011;75039;51.970;5.660;2024-03-23T13:34:29;6.47;;;1.50;;
48847;SDS011;75039;51.970;5.660;2024-03-23T13:36:55;5.70;;;1.60;;
48847;SDS011;75039;51.970;5.660;2024-03-23T13:39:23;5.10;;;1.33;;
48847;SDS011;75039;51.970;5.660;2024-03-23T13:41:49;4.07;;;1.55;;
48847;SDS011;75039;51.970;5.660;2024-03-23T13:44:14;2.95;;;1.20;;
48847;SDS011;75039;51.970;5.660;2024-03-23T13:46:42;7.60;;;1.27;;
48847;SDS011;75039;51.970;5.660;2024-03-23T13:49:27;5.10;;;1.75;;
48847;SDS011;75039;51.970;5.660;2024-03-23T13:51:55;6.65;;;1.83;;
48847;SDS011;75039;51.970;5.660;2024-03-23T13:54:22;4.25;;;1.27;;
48847;SDS011;75039;51.970;5.660;2024-03-23T13:56:50;3.90;;;1.33;;
48847;SDS011;75039;51.970;5.660;2024-03-23T13:59:16;9.57;;;1.48;;
48847;SDS011;75039;51.970;5.660;2024-03-23T14:01:43;5.63;;;1.45;;
48847;SDS011;75039;51.970;5.660;2024-03-23T14:04:11;3.33;;;1.00;;
48847;SDS011;75039;51.970;5.660;2024-03-23T14:06:37;4.97;;;1.13;;
48847;SDS011;75039;51.970;5.660;2024-03-23T14:09:03;4.70;;;1.05;;
48847;SDS011;75039;51.970;5.660;2024-03-23T14:11:30;3.58;;;1.08;;
48847;SDS011;75039;51.970;5.660;2024-03-23T14:13:56;6.60;;;1.20;;
48847;SDS011;75039;51.970;5.660;2024-03-23T14:16:22;4.07;;;1.38;;
48847;SDS011;75039;51.970;5.660;2024-03-23T14:18:47;5.95;;;1.48;;
48847;SDS011;75039;51.970;5.660;2024-03-23T14:21:13;4.00;;;1.10;;
48847;SDS011;75039;51.970;5.660;2024-03-23T14:23:39;2.75;;;1.45;;
48847;SDS011;75039;51.970;5.660;2024-03-23T14:26:06;3.03;;;0.90;;
48847;SDS011;75039;51.970;5.660;2024-03-23T14:28:32;7.85;;;1.20;;
48847;SDS011;75039;51.970;5.660;2024-03-23T14:30:58;2.90;;;1.35;;
48847;SDS011;75039;51.970;5.660;2024-03-23T14:33:24;5.03;;;1.48;;
48847;SDS011;75039;51.970;5.660;2024-03-23T14:35:53;3.22;;;1.27;;
48847;SDS011;75039;51.970;5.660;2024-03-23T14:38:23;8.75;;;1.67;;
48847;SDS011;75039;51.970;5.660;2024-03-23T14:40:49;7.93;;;1.60;;
48847;SDS011;75039;51.970;5.660;2024-03-23T14:43:16;4.97;;;1.30;;
48847;SDS011;75039;51.970;5.660;2024-03-23T14:48:30;8.35;;;1.48;;
48847;SDS011;75039;51.970;5.660;2024-03-23T14:50:57;6.68;;;1.55;;
48847;SDS011;75039;51.970;5.660;2024-03-23T14:53:25;7.07;;;1.65;;
48847;SDS011;75039;51.970;5.660;2024-03-23T14:55:58;7.15;;;1.40;;
48847;SDS011;75039;51.970;5.660;2024-03-23T14:58:25;5.80;;;1.55;;
48847;SDS011;75039;51.970;5.660;2024-03-23T15:00:51;7.20;;;1.73;;
48847;SDS011;75039;51.970;5.660;2024-03-23T15:03:17;7.25;;;1.45;;
48847;SDS011;75039;51.970;5.660;2024-03-23T15:05:51;5.05;;;1.35;;
48847;SDS011;75039;51.970;5.660;2024-03-23T15:08:18;4.93;;;1.27;;
48847;SDS011;75039;51.970;5.660;2024-03-23T15:10:44;9.80;;;2.30;;
48847;SDS011;75039;51.970;5.660;2024-03-23T15:13:09;4.75;;;1.38;;
48847;SDS011;75039;51.970;5.660;2024-03-23T15:15:44;5.78;;;1.50;;
48847;SDS011;75039;51.970;5.660;2024-03-23T15:18:13;5.50;;;1.60;;
48847;SDS011;75039;51.970;5.660;2024-03-23T15:20:40;14.40;;;3.53;;
48847;SDS011;75039;51.970;5.660;2024-03-23T15:23:07;6.22;;;2.15;;
48847;SDS011;75039;51.970;5.660;2024-03-23T15:25:33;7.25;;;1.67;;
48847;SDS011;75039;51.970;5.660;2024-03-23T15:27:59;6.47;;;1.92;;
48847;SDS011;75039;51.970;5.660;2024-03-23T15:30:26;4.00;;;1.10;;
48847;SDS011;75039;51.970;5.660;2024-03-23T15:32:52;8.25;;;1.38;;
48847;SDS011;75039;51.970;5.660;2024-03-23T15:35:18;1.67;;;0.50;;
48847;SDS011;75039;51.970;5.660;2024-03-23T15:37:46;5.95;;;1.10;;
48847;SDS011;75039;51.970;5.660;2024-03-23T15:40:12;2.85;;;0.93;;
48847;SDS011;75039;51.970;5.660;2024-03-23T15:42:38;4.10;;;0.75;;
48847;SDS011;75039;51.970;5.660;2024-03-23T15:45:06;3.42;;;0.90;;
48847;SDS011;75039;51.970;5.660;2024-03-23T15:47:33;3.67;;;0.88;;
48847;SDS011;75039;51.970;5.660;2024-03-23T15:50:00;2.63;;;0.77;;
48847;SDS011;75039;51.970;5.660;2024-03-23T15:52:25;2.25;;;0.68;;